sensor_id;sensor_type;location;lat;lon;timestamp;pressure;altitude;pressure_sealevel;temperature;humidity
54936;BME280;40838;50.676;7.838;2023-09-07T00:01:30;98784.19;;;12.66;100.00
54936;BME280;40838;50.676;7.838;2023-09-07T00:03:57;98778.63;;;12.68;100.00
54936;BME280;40838;50.676;7.838;2023-09-07T00:06:24;98787.19;;;12.75;100.00
54936;BME280;40838;50.676;7.838;2023-09-07T00:08:52;98783.94;;;12.68;100.00
54936;BME280;40838;50.676;7.838;2023-09-07T00:11:20;98781.75;;;12.60;100.00
54936;BME280;40838;50.676;7.838;2023-09-07T00:13:46;98777.25;;;12.60;100.00
54936;BME280;40838;50.676;7.838;2023-09-07T00:16:13;98777.38;;;12.48;100.00
54936;BME280;40838;50.676;7.838;2023-09-07T00:18:40;98773.66;;;12.49;100.00
54936;BME280;40838;50.676;7.838;2023-09-07T00:21:06;98780.03;;;12.48;100.00
54936;BME280;40838;50.676;7.838;2023-09-07T00:23:34;98773.66;;;12.49;100.00
54936;BME280;40838;50.676;7.838;2023-09-07T00:26:03;98773.75;;;12.55;100.00
54936;BME280;40838;50.676;7.838;2023-09-07T00:28:31;98776.91;;;12.51;100.00
54936;BME280;40838;50.676;7.838;2023-09-07T00:30:58;98774.41;;;12.45;100.00
54936;BME280;40838;50.676;7.838;2023-09-07T00:33:25;98781.88;;;12.48;100.00
54936;BME280;40838;50.676;7.838;2023-09-07T00:35:51;98785.75;;;12.35;100.00
54936;BME280;40838;50.676;7.838;2023-09-07T00:38:18;98779.72;;;12.45;100.00
54936;BME280;40838;50.676;7.838;2023-09-07T00:40:45;98783.88;;;12.36;100.00
54936;BME280;40838;50.676;7.838;2023-09-07T00:43:12;98778.84;;;12.34;100.00
54936;BME280;40838;50.676;7.838;2023-09-07T00:45:40;98774.47;;;12.23;100.00
54936;BME280;40838;50.676;7.838;2023-09-07T00:48:07;98773.38;;;12.19;100.00
54936;BME280;40838;50.676;7.838;2023-09-07T00:50:34;98761.16;;;12.18;100.00
54936;BME280;40838;50.676;7.838;2023-09-07T00:53:01;98756.63;;;12.18;100.00
54936;BME280;40838;50.676;7.838;2023-09-07T00:55:29;98759.56;;;12.17;100.00
54936;BME280;40838;50.676;7.838;2023-09-07T00:57:58;98763.50;;;12.14;100.00
54936;BME280;40838;50.676;7.838;2023-09-07T01:00:25;98758.91;;;12.32;100.00
54936;BME280;40838;50.676;7.838;2023-09-07T01:02:55;98759.78;;;12.15;100.00
54936;BME280;40838;50.676;7.838;2023-09-07T01:05:28;98753.91;;;12.08;100.00
54936;BME280;40838;50.676;7.838;2023-09-07T01:08:00;98754.97;;;12.07;100.00
54936;BME280;40838;50.676;7.838;2023-09-07T01:10:30;98756.19;;;11.99;100.00
54936;BME280;40838;50.676;7.838;2023-09-07T01:12:57;98749.03;;;12.00;100.00
54936;BME280;40838;50.676;7.838;2023-09-07T01:15:24;98740.28;;;11.99;100.00
54936;BME280;40838;50.676;7.838;2023-09-07T01:17:51;98739.34;;;11.89;100.00
54936;BME280;40838;50.676;7.838;2023-09-07T01:20:20;98735.41;;;11.91;100.00
54936;BME280;40838;50.676;7.838;2023-09-07T01:22:49;98734.06;;;11.89;100.00
54936;BME280;40838;50.676;7.838;2023-09-07T01:25:16;98737.63;;;11.77;100.00
54936;BME280;40838;50.676;7.838;2023-09-07T01:27:43;98734.91;;;11.94;100.00
54936;BME280;40838;50.676;7.838;2023-09-07T01:30:12;98736.88;;;12.04;100.00
54936;BME280;40838;50.676;7.838;2023-09-07T01:32:39;98742.03;;;12.16;100.00
54936;BME280;40838;50.676;7.838;2023-09-07T01:35:10;98741.28;;;12.20;100.00
54936;BME280;40838;50.676;7.838;2023-09-07T01:37:36;98745.53;;;12.21;100.00
54936;BME280;40838;50.676;7.838;2023-09-07T01:40:06;98740.22;;;12.21;100.00
54936;BME280;40838;50.676;7.838;2023-09-07T01:42:34;98743.88;;;12.15;100.00
54936;BME280;40838;50.676;7.838;2023-09-07T01:45:01;98742.28;;;12.14;100.00
54936;BME280;40838;50.676;7.838;2023-09-07T01:47:28;98734.09;;;12.21;100.00
54936;BME280;40838;50.676;7.838;2023-09-07T01:49:54;98741.22;;;12.15;100.00
54936;BME280;40838;50.676;7.838;2023-09-07T01:52:21;98734.91;;;12.21;100.00
54936;BME280;40838;50.676;7.838;2023-09-07T01:54:48;98734.56;;;12.40;100.00
54936;BME280;40838;50.676;7.838;2023-09-07T01:57:16;98738.84;;;12.46;100.00
54936;BME280;40838;50.676;7.838;2023-09-07T01:59:43;98740.66;;;12.40;100.00
54936;BME280;40838;50.676;7.838;2023-09-07T02:02:10;98740.91;;;12.39;100.00
54936;BME280;40838;50.676;7.838;2023-09-07T02:04:37;98741.47;;;12.41;100.00
54936;BME280;40838;50.676;7.838;2023-09-07T02:07:03;98736.44;;;12.44;100.00
54936;BME280;40838;50.676;7.838;2023-09-07T02:09:32;98740.72;;;12.45;100.00
54936;BME280;40838;50.676;7.838;2023-09-07T02:11:58;98733.84;;;12.49;100.00
54936;BME280;40838;50.676;7.838;2023-09-07T02:14:26;98738.34;;;12.49;100.00
54936;BME280;40838;50.676;7.838;2023-09-07T02:16:53;98734.47;;;12.57;100.00
54936;BME280;40838;50.676;7.838;2023-09-07T02:19:20;98737.56;;;12.48;100.00
54936;BME280;40838;50.676;7.838;2023-09-07T02:21:48;98726.63;;;12.45;100.00
54936;BME280;40838;50.676;7.838;2023-09-07T02:24:15;98726.66;;;12.50;100.00
54936;BME280;40838;50.676;7.838;2023-09-07T02:26:42;98734.28;;;12.36;100.00
54936;BME280;40838;50.676;7.838;2023-09-07T02:29:11;98730.78;;;12.36;100.00
54936;BME280;40838;50.676;7.838;2023-09-07T02:31:42;98738.22;;;12.34;100.00
54936;BME280;40838;50.676;7.838;2023-09-07T02:34:09;98729.59;;;12.21;100.00
54936;BME280;40838;50.676;7.838;2023-09-07T02:36:36;98734.44;;;12.24;100.00
54936;BME280;40838;50.676;7.838;2023-09-07T02:39:03;98734.63;;;12.50;100.00
54936;BME280;40838;50.676;7.838;2023-09-07T02:41:31;98737.22;;;12.40;100.00
54936;BME280;40838;50.676;7.838;2023-09-07T02:43:57;98739.38;;;12.16;100.00
54936;BME280;40838;50.676;7.838;2023-09-07T02:46:24;98738.72;;;12.31;100.00
54936;BME280;40838;50.676;7.838;2023-09-07T02:48:52;98735.56;;;12.34;100.00
54936;BME280;40838;50.676;7.838;2023-09-07T02:51:22;98730.41;;;12.22;100.00
54936;BME280;40838;50.676;7.838;2023-09-07T02:53:49;98729.88;;;12.20;100.00
54936;BME280;40838;50.676;7.838;2023-09-07T02:56:16;98729.31;;;12.18;100.00
54936;BME280;40838;50.676;7.838;2023-09-07T02:58:42;98731.97;;;12.18;100.00
54936;BME280;40838;50.676;7.838;2023-09-07T03:01:10;98732.16;;;12.11;100.00
54936;BME280;40838;50.676;7.838;2023-09-07T03:03:41;98739.06;;;12.12;100.00
54936;BME280;40838;50.676;7.838;2023-09-07T03:06:11;98737.47;;;12.11;100.00
54936;BME280;40838;50.676;7.838;2023-09-07T03:08:40;98736.38;;;12.07;100.00
54936;BME280;40838;50.676;7.838;2023-09-07T03:11:08;98735.25;;;12.03;100.00
54936;BME280;40838;50.676;7.838;2023-09-07T03:13:34;98735.81;;;12.05;100.00
54936;BME280;40838;50.676;7.838;2023-09-07T03:16:03;98735.06;;;12.10;100.00
54936;BME280;40838;50.676;7.838;2023-09-07T03:18:30;98730.56;;;12.10;100.00
54936;BME280;40838;50.676;7.838;2023-09-07T03:20:59;98719.47;;;12.18;100.00
54936;BME280;40838;50.676;7.838;2023-09-07T03:23:28;98729.22;;;12.07;100.00
54936;BME280;40838;50.676;7.838;2023-09-07T03:25:56;98728.81;;;12.21;100.00
54936;BME280;40838;50.676;7.838;2023-09-07T03:28:25;98730.44;;;12.27;100.00
54936;BME280;40838;50.676;7.838;2023-09-07T03:30:53;98730.41;;;12.22;100.00
54936;BME280;40838;50.676;7.838;2023-09-07T03:33:20;98729.06;;;12.19;100.00
54936;BME280;40838;50.676;7.838;2023-09-07T03:35:47;98726.19;;;12.26;100.00
54936;BME280;40838;50.676;7.838;2023-09-07T03:38:14;98724.34;;;12.26;100.00
54936;BME280;40838;50.676;7.838;2023-09-07T03:40:42;98724.00;;;12.18;100.00
54936;BME280;40838;50.676;7.838;2023-09-07T03:43:09;98729.97;;;12.03;100.00
54936;BME280;40838;50.676;7.838;2023-09-07T03:45:36;98721.63;;;12.16;100.00
54936;BME280;40838;50.676;7.838;2023-09-07T03:48:04;98723.47;;;12.16;100.00
54936;BME280;40838;50.676;7.838;2023-09-07T03:50:32;98729.81;;;12.15;100.00
54936;BME280;40838;50.676;7.838;2023-09-07T03:52:59;98736.69;;;12.11;100.00
54936;BME280;40838;50.676;7.838;2023-09-07T03:55:26;98731.38;;;12.11;100.00
54936;BME280;40838;50.676;7.838;2023-09-07T03:57:54;98730.47;;;12.00;100.00
54936;BME280;40838;50.676;7.838;2023-09-07T04:00:22;98729.75;;;11.82;100.00
54936;BME280;40838;50.676;7.838;2023-09-07T04:02:49;98732.91;;;11.79;100.00
54936;BME280;40838;50.676;7.838;2023-09-07T04:05:16;98734.03;;;11.83;100.00
54936;BME280;40838;50.676;7.838;2023-09-07T04:07:44;98735.19;;;11.93;100.00
54936;BME280;40838;50.676;7.838;2023-09-07T04:10:12;98727.16;;;11.88;100.00
54936;BME280;40838;50.676;7.838;2023-09-07T04:12:39;98729.16;;;11.75;100.00
54936;BME280;40838;50.676;7.838;2023-09-07T04:15:08;98723.66;;;11.60;100.00
54936;BME280;40838;50.676;7.838;2023-09-07T04:17:37;98729.03;;;11.65;100.00
54936;BME280;40838;50.676;7.838;2023-09-07T04:20:07;98726.56;;;11.58;100.00
54936;BME280;40838;50.676;7.838;2023-09-07T04:22:35;98732.03;;;11.74;100.00
54936;BME280;40838;50.676;7.838;2023-09-07T04:25:02;98731.50;;;11.50;100.00
54936;BME280;40838;50.676;7.838;2023-09-07T04:27:30;98727.63;;;11.57;100.00
54936;BME280;40838;50.676;7.838;2023-09-07T04:29:57;98730.44;;;11.73;100.00
54936;BME280;40838;50.676;7.838;2023-09-07T04:32:26;98735.97;;;11.71;100.00
54936;BME280;40838;50.676;7.838;2023-09-07T04:34:54;98735.38;;;11.64;100.00
54936;BME280;40838;50.676;7.838;2023-09-07T04:37:22;98740.88;;;11.57;100.00
54936;BME280;40838;50.676;7.838;2023-09-07T04:39:50;98742.59;;;11.47;100.00
54936;BME280;40838;50.676;7.838;2023-09-07T04:42:17;98742.72;;;11.35;100.00
54936;BME280;40838;50.676;7.838;2023-09-07T04:44:44;98745.56;;;11.28;100.00
54936;BME280;40838;50.676;7.838;2023-09-07T04:47:11;98746.09;;;11.30;100.00
54936;BME280;40838;50.676;7.838;2023-09-07T04:49:39;98743.28;;;11.20;100.00
54936;BME280;40838;50.676;7.838;2023-09-07T04:52:05;98741.03;;;11.12;100.00
54936;BME280;40838;50.676;7.838;2023-09-07T04:54:34;98745.38;;;11.18;100.00
54936;BME280;40838;50.676;7.838;2023-09-07T04:57:01;98739.50;;;11.16;100.00
54936;BME280;40838;50.676;7.838;2023-09-07T04:59:27;98746.84;;;11.09;100.00
54936;BME280;40838;50.676;7.838;2023-09-07T05:01:54;98746.34;;;11.29;100.00
54936;BME280;40838;50.676;7.838;2023-09-07T05:04:21;98740.84;;;11.35;100.00
54936;BME280;40838;50.676;7.838;2023-09-07T05:06:49;98743.88;;;11.44;100.00
54936;BME280;40838;50.676;7.838;2023-09-07T05:09:16;98738.75;;;11.81;100.00
54936;BME280;40838;50.676;7.838;2023-09-07T05:11:42;98743.06;;;12.15;100.00
54936;BME280;40838;50.676;7.838;2023-09-07T05:14:09;98744.31;;;12.34;100.00
54936;BME280;40838;50.676;7.838;2023-09-07T05:16:36;98740.53;;;12.52;100.00
54936;BME280;40838;50.676;7.838;2023-09-07T05:19:03;98748.50;;;12.52;100.00
54936;BME280;40838;50.676;7.838;2023-09-07T05:21:30;98745.47;;;12.43;100.00
54936;BME280;40838;50.676;7.838;2023-09-07T05:23:58;98756.44;;;11.98;100.00
54936;BME280;40838;50.676;7.838;2023-09-07T05:26:25;98752.91;;;11.92;100.00
54936;BME280;40838;50.676;7.838;2023-09-07T05:28:54;98752.31;;;12.07;100.00
54936;BME280;40838;50.676;7.838;2023-09-07T05:31:21;98754.47;;;12.15;100.00
54936;BME280;40838;50.676;7.838;2023-09-07T05:33:47;98753.88;;;12.35;100.00
54936;BME280;40838;50.676;7.838;2023-09-07T05:36:14;98744.66;;;12.70;100.00
54936;BME280;40838;50.676;7.838;2023-09-07T05:38:41;98753.19;;;13.14;100.00
54936;BME280;40838;50.676;7.838;2023-09-07T05:41:09;98745.78;;;13.22;100.00
54936;BME280;40838;50.676;7.838;2023-09-07T05:43:36;98753.44;;;12.43;100.00
54936;BME280;40838;50.676;7.838;2023-09-07T05:46:03;98751.41;;;12.88;100.00
54936;BME280;40838;50.676;7.838;2023-09-07T05:48:30;98755.69;;;12.89;100.00
54936;BME280;40838;50.676;7.838;2023-09-07T05:50:56;98754.69;;;14.51;100.00
54936;BME280;40838;50.676;7.838;2023-09-07T05:53:23;98753.44;;;15.65;100.00
54936;BME280;40838;50.676;7.838;2023-09-07T05:55:51;98752.03;;;17.73;100.00
54936;BME280;40838;50.676;7.838;2023-09-07T05:58:20;98759.47;;;19.86;100.00
54936;BME280;40838;50.676;7.838;2023-09-07T06:00:47;98753.91;;;22.41;100.00
54936;BME280;40838;50.676;7.838;2023-09-07T06:03:13;98756.25;;;24.13;100.00
54936;BME280;40838;50.676;7.838;2023-09-07T06:05:41;98758.88;;;24.43;97.99
54936;BME280;40838;50.676;7.838;2023-09-07T06:08:09;98759.53;;;23.77;99.94
54936;BME280;40838;50.676;7.838;2023-09-07T06:10:37;98756.00;;;23.08;100.00
54936;BME280;40838;50.676;7.838;2023-09-07T06:13:05;98757.00;;;23.42;97.71
54936;BME280;40838;50.676;7.838;2023-09-07T06:15:33;98751.81;;;24.09;97.96
54936;BME280;40838;50.676;7.838;2023-09-07T06:18:00;98761.38;;;24.81;92.74
54936;BME280;40838;50.676;7.838;2023-09-07T06:20:27;98755.81;;;25.85;87.49
54936;BME280;40838;50.676;7.838;2023-09-07T06:22:56;98754.16;;;26.61;82.67
54936;BME280;40838;50.676;7.838;2023-09-07T06:25:23;98747.53;;;27.37;80.05
54936;BME280;40838;50.676;7.838;2023-09-07T06:27:50;98754.22;;;26.36;80.13
54936;BME280;40838;50.676;7.838;2023-09-07T06:30:18;98749.41;;;25.16;85.10
54936;BME280;40838;50.676;7.838;2023-09-07T06:32:46;98750.34;;;27.41;80.33
54936;BME280;40838;50.676;7.838;2023-09-07T06:35:14;98744.47;;;27.39;77.09
54936;BME280;40838;50.676;7.838;2023-09-07T06:37:41;98745.41;;;28.17;69.28
54936;BME280;40838;50.676;7.838;2023-09-07T06:40:11;98746.72;;;29.54;67.84
54936;BME280;40838;50.676;7.838;2023-09-07T06:42:39;98749.28;;;28.16;70.65
54936;BME280;40838;50.676;7.838;2023-09-07T06:45:12;98757.28;;;28.25;69.70
54936;BME280;40838;50.676;7.838;2023-09-07T06:47:39;98756.91;;;28.26;70.08
54936;BME280;40838;50.676;7.838;2023-09-07T06:50:09;98759.03;;;29.45;68.46
54936;BME280;40838;50.676;7.838;2023-09-07T06:52:35;98752.19;;;28.85;66.09
54936;BME280;40838;50.676;7.838;2023-09-07T06:55:03;98765.78;;;29.31;68.50
54936;BME280;40838;50.676;7.838;2023-09-07T06:57:30;98765.50;;;28.71;66.13
54936;BME280;40838;50.676;7.838;2023-09-07T06:59:56;98768.44;;;29.24;69.53
54936;BME280;40838;50.676;7.838;2023-09-07T07:02:23;98765.69;;;28.59;73.26
54936;BME280;40838;50.676;7.838;2023-09-07T07:04:50;98774.66;;;29.74;78.61
54936;BME280;40838;50.676;7.838;2023-09-07T07:07:18;98764.88;;;29.47;77.29
54936;BME280;40838;50.676;7.838;2023-09-07T07:09:45;98771.28;;;28.08;71.69
54936;BME280;40838;50.676;7.838;2023-09-07T07:12:13;98771.44;;;28.96;70.85
54936;BME280;40838;50.676;7.838;2023-09-07T07:14:40;98774.56;;;28.75;72.20
54936;BME280;40838;50.676;7.838;2023-09-07T07:17:07;98772.75;;;28.05;74.92
54936;BME280;40838;50.676;7.838;2023-09-07T07:19:34;98776.72;;;28.46;74.79
54936;BME280;40838;50.676;7.838;2023-09-07T07:22:03;98773.50;;;28.60;70.42
54936;BME280;40838;50.676;7.838;2023-09-07T07:24:32;98783.03;;;27.76;76.82
54936;BME280;40838;50.676;7.838;2023-09-07T07:26:59;98780.72;;;28.72;78.09
54936;BME280;40838;50.676;7.838;2023-09-07T07:29:29;98781.84;;;28.90;74.44
54936;BME280;40838;50.676;7.838;2023-09-07T07:31:56;98778.22;;;27.06;79.66
54936;BME280;40838;50.676;7.838;2023-09-07T07:34:23;98780.88;;;26.75;79.16
54936;BME280;40838;50.676;7.838;2023-09-07T07:36:50;98786.69;;;26.33;81.63
54936;BME280;40838;50.676;7.838;2023-09-07T07:39:17;98774.81;;;25.85;87.50
54936;BME280;40838;50.676;7.838;2023-09-07T07:41:45;98780.00;;;26.42;85.05
54936;BME280;40838;50.676;7.838;2023-09-07T07:44:13;98775.72;;;25.52;88.46
54936;BME280;40838;50.676;7.838;2023-09-07T07:46:40;98775.88;;;26.77;83.32
54936;BME280;40838;50.676;7.838;2023-09-07T07:49:06;98777.28;;;26.70;83.72
54936;BME280;40838;50.676;7.838;2023-09-07T07:51:35;98782.16;;;26.65;81.00
54936;BME280;40838;50.676;7.838;2023-09-07T07:54:01;98781.06;;;26.13;84.89
54936;BME280;40838;50.676;7.838;2023-09-07T07:56:28;98773.06;;;27.33;81.67
54936;BME280;40838;50.676;7.838;2023-09-07T07:58:57;98774.94;;;26.85;81.51
54936;BME280;40838;50.676;7.838;2023-09-07T08:01:24;98780.47;;;26.60;81.71
54936;BME280;40838;50.676;7.838;2023-09-07T08:03:53;98779.69;;;26.32;84.61
54936;BME280;40838;50.676;7.838;2023-09-07T08:06:20;98777.03;;;26.47;84.46
54936;BME280;40838;50.676;7.838;2023-09-07T08:08:47;98774.72;;;26.62;83.35
54936;BME280;40838;50.676;7.838;2023-09-07T08:11:14;98771.47;;;27.32;81.66
54936;BME280;40838;50.676;7.838;2023-09-07T08:13:42;98774.91;;;26.41;82.63
54936;BME280;40838;50.676;7.838;2023-09-07T08:16:13;98767.28;;;26.59;81.45
54936;BME280;40838;50.676;7.838;2023-09-07T08:18:40;98770.72;;;26.31;82.52
54936;BME280;40838;50.676;7.838;2023-09-07T08:21:08;98769.66;;;26.08;83.61
54936;BME280;40838;50.676;7.838;2023-09-07T08:23:35;98774.81;;;25.60;84.88
54936;BME280;40838;50.676;7.838;2023-09-07T08:26:02;98769.72;;;26.36;81.02
54936;BME280;40838;50.676;7.838;2023-09-07T08:28:31;98763.28;;;26.84;80.91
54936;BME280;40838;50.676;7.838;2023-09-07T08:30:58;98766.38;;;26.55;80.26
54936;BME280;40838;50.676;7.838;2023-09-07T08:33:27;98765.78;;;26.61;80.90
54936;BME280;40838;50.676;7.838;2023-09-07T08:35:56;98768.34;;;26.70;78.72
54936;BME280;40838;50.676;7.838;2023-09-07T08:38:25;98767.06;;;26.52;78.15
54936;BME280;40838;50.676;7.838;2023-09-07T08:40:54;98766.72;;;26.97;79.07
54936;BME280;40838;50.676;7.838;2023-09-07T08:43:21;98770.06;;;25.94;83.38
54936;BME280;40838;50.676;7.838;2023-09-07T08:45:51;98767.13;;;26.83;80.17
54936;BME280;40838;50.676;7.838;2023-09-07T08:48:27;98758.34;;;27.85;74.50
54936;BME280;40838;50.676;7.838;2023-09-07T08:50:56;98755.03;;;27.60;74.13
54936;BME280;40838;50.676;7.838;2023-09-07T08:53:23;98761.78;;;26.87;77.19
54936;BME280;40838;50.676;7.838;2023-09-07T08:55:51;98760.72;;;27.87;74.55
54936;BME280;40838;50.676;7.838;2023-09-07T08:58:18;98763.78;;;27.85;76.82
54936;BME280;40838;50.676;7.838;2023-09-07T09:00:44;98754.63;;;28.90;71.46
54936;BME280;40838;50.676;7.838;2023-09-07T09:03:11;98753.78;;;29.85;66.77
54936;BME280;40838;50.676;7.838;2023-09-07T09:05:40;98752.63;;;28.87;70.88
54936;BME280;40838;50.676;7.838;2023-09-07T09:08:07;98761.97;;;27.73;74.78
54936;BME280;40838;50.676;7.838;2023-09-07T09:10:37;98752.50;;;28.02;76.91
54936;BME280;40838;50.676;7.838;2023-09-07T09:13:04;98749.91;;;27.39;76.04
54936;BME280;40838;50.676;7.838;2023-09-07T09:15:31;98757.25;;;26.91;81.49
54936;BME280;40838;50.676;7.838;2023-09-07T09:17:58;98754.19;;;28.46;73.00
54936;BME280;40838;50.676;7.838;2023-09-07T09:20:25;98744.22;;;28.77;70.97
54936;BME280;40838;50.676;7.838;2023-09-07T09:22:54;98745.06;;;26.85;79.72
54936;BME280;40838;50.676;7.838;2023-09-07T09:25:21;98745.00;;;27.29;79.41
54936;BME280;40838;50.676;7.838;2023-09-07T09:27:48;98745.56;;;28.24;75.73
54936;BME280;40838;50.676;7.838;2023-09-07T09:30:15;98741.75;;;27.90;72.98
54936;BME280;40838;50.676;7.838;2023-09-07T09:32:43;98739.72;;;27.68;76.69
54936;BME280;40838;50.676;7.838;2023-09-07T09:35:09;98741.34;;;27.05;79.88
54936;BME280;40838;50.676;7.838;2023-09-07T09:37:44;98740.97;;;26.47;81.64
54936;BME280;40838;50.676;7.838;2023-09-07T09:40:13;98723.59;;;26.96;78.59
54936;BME280;40838;50.676;7.838;2023-09-07T09:42:41;98729.44;;;27.96;75.15
54936;BME280;40838;50.676;7.838;2023-09-07T09:45:09;98738.22;;;27.70;71.89
54936;BME280;40838;50.676;7.838;2023-09-07T09:47:38;98745.19;;;27.04;73.90
54936;BME280;40838;50.676;7.838;2023-09-07T09:50:07;98735.75;;;27.65;72.69
54936;BME280;40838;50.676;7.838;2023-09-07T09:52:34;98731.59;;;28.06;73.07
54936;BME280;40838;50.676;7.838;2023-09-07T09:55:04;98724.56;;;28.44;69.21
54936;BME280;40838;50.676;7.838;2023-09-07T09:57:35;98731.72;;;28.72;70.34
54936;BME280;40838;50.676;7.838;2023-09-07T10:00:03;98725.34;;;27.35;75.49
54936;BME280;40838;50.676;7.838;2023-09-07T10:02:46;98724.56;;;27.35;75.27
54936;BME280;40838;50.676;7.838;2023-09-07T10:05:14;98723.97;;;28.32;73.01
54936;BME280;40838;50.676;7.838;2023-09-07T10:07:42;98718.06;;;28.49;70.42
54936;BME280;40838;50.676;7.838;2023-09-07T10:10:13;98730.41;;;28.43;68.90
54936;BME280;40838;50.676;7.838;2023-09-07T10:12:42;98717.84;;;28.58;69.21
54936;BME280;40838;50.676;7.838;2023-09-07T10:15:24;98719.19;;;28.09;72.91
54936;BME280;40838;50.676;7.838;2023-09-07T10:18:02;98707.97;;;28.11;73.20
54936;BME280;40838;50.676;7.838;2023-09-07T10:20:29;98710.56;;;28.65;70.32
54936;BME280;40838;50.676;7.838;2023-09-07T10:23:04;98713.75;;;28.90;69.04
54936;BME280;40838;50.676;7.838;2023-09-07T10:25:31;98710.84;;;27.63;73.48
54936;BME280;40838;50.676;7.838;2023-09-07T10:28:04;98713.94;;;29.01;69.53
54936;BME280;40838;50.676;7.838;2023-09-07T10:30:31;98715.72;;;29.16;66.29
54936;BME280;40838;50.676;7.838;2023-09-07T10:32:58;98711.78;;;28.25;71.07
54936;BME280;40838;50.676;7.838;2023-09-07T10:35:25;98703.41;;;29.00;69.52
54936;BME280;40838;50.676;7.838;2023-09-07T10:37:54;98705.06;;;27.13;75.73
54936;BME280;40838;50.676;7.838;2023-09-07T10:40:21;98710.81;;;26.64;76.65
54936;BME280;40838;50.676;7.838;2023-09-07T10:42:48;98699.97;;;27.63;72.65
54936;BME280;40838;50.676;7.838;2023-09-07T10:45:17;98696.47;;;29.06;68.19
54936;BME280;40838;50.676;7.838;2023-09-07T10:47:44;98698.16;;;29.37;65.51
54936;BME280;40838;50.676;7.838;2023-09-07T10:50:12;98702.16;;;28.74;67.69
54936;BME280;40838;50.676;7.838;2023-09-07T10:52:39;98695.59;;;27.94;70.84
54936;BME280;40838;50.676;7.838;2023-09-07T10:55:08;98686.34;;;27.28;74.61
54936;BME280;40838;50.676;7.838;2023-09-07T10:57:42;98691.25;;;27.38;72.87
54936;BME280;40838;50.676;7.838;2023-09-07T11:00:11;98694.97;;;29.08;66.73
54936;BME280;40838;50.676;7.838;2023-09-07T11:02:42;98694.25;;;28.88;67.15
54936;BME280;40838;50.676;7.838;2023-09-07T11:05:09;98689.38;;;27.58;72.79
54936;BME280;40838;50.676;7.838;2023-09-07T11:07:37;98689.00;;;28.99;68.56
54936;BME280;40838;50.676;7.838;2023-09-07T11:10:06;98692.31;;;28.89;73.18
54936;BME280;40838;50.676;7.838;2023-09-07T11:12:36;98680.25;;;29.66;65.56
54936;BME280;40838;50.676;7.838;2023-09-07T11:15:04;98678.66;;;27.65;73.53
54936;BME280;40838;50.676;7.838;2023-09-07T11:17:31;98685.97;;;27.45;72.42
54936;BME280;40838;50.676;7.838;2023-09-07T11:20:03;98679.19;;;27.90;73.99
54936;BME280;40838;50.676;7.838;2023-09-07T11:22:31;98672.19;;;27.54;75.75
54936;BME280;40838;50.676;7.838;2023-09-07T11:24:59;98662.09;;;27.70;75.70
54936;BME280;40838;50.676;7.838;2023-09-07T11:27:29;98668.44;;;28.17;71.81
54936;BME280;40838;50.676;7.838;2023-09-07T11:29:56;98662.44;;;27.88;71.43
54936;BME280;40838;50.676;7.838;2023-09-07T11:32:23;98667.13;;;27.17;75.88
54936;BME280;40838;50.676;7.838;2023-09-07T11:34:51;98670.22;;;27.35;66.05
54936;BME280;40838;50.676;7.838;2023-09-07T11:37:24;98670.16;;;27.86;63.10
54936;BME280;40838;50.676;7.838;2023-09-07T11:39:51;98678.31;;;27.86;67.75
54936;BME280;40838;50.676;7.838;2023-09-07T11:42:20;98669.00;;;27.32;65.55
54936;BME280;40838;50.676;7.838;2023-09-07T11:44:48;98669.56;;;27.22;67.21
54936;BME280;40838;50.676;7.838;2023-09-07T11:47:16;98668.31;;;28.29;63.63
54936;BME280;40838;50.676;7.838;2023-09-07T11:49:45;98662.28;;;28.20;63.99
54936;BME280;40838;50.676;7.838;2023-09-07T11:52:14;98665.88;;;27.50;65.86
54936;BME280;40838;50.676;7.838;2023-09-07T11:54:42;98660.31;;;27.78;64.42
54936;BME280;40838;50.676;7.838;2023-09-07T11:57:09;98664.16;;;27.96;64.10
54936;BME280;40838;50.676;7.838;2023-09-07T11:59:36;98655.34;;;27.83;65.19
54936;BME280;40838;50.676;7.838;2023-09-07T12:02:03;98653.84;;;27.86;61.33
54936;BME280;40838;50.676;7.838;2023-09-07T12:04:30;98652.75;;;27.17;61.00
54936;BME280;40838;50.676;7.838;2023-09-07T12:06:56;98657.06;;;27.92;62.43
54936;BME280;40838;50.676;7.838;2023-09-07T12:09:23;98653.34;;;28.19;59.06
54936;BME280;40838;50.676;7.838;2023-09-07T12:11:51;98639.81;;;28.23;55.39
54936;BME280;40838;50.676;7.838;2023-09-07T12:14:18;98653.66;;;27.59;59.51
54936;BME280;40838;50.676;7.838;2023-09-07T12:16:45;98654.72;;;27.90;55.13
54936;BME280;40838;50.676;7.838;2023-09-07T12:19:12;98646.91;;;28.08;56.31
54936;BME280;40838;50.676;7.838;2023-09-07T12:21:39;98642.78;;;27.75;55.19
54936;BME280;40838;50.676;7.838;2023-09-07T12:24:07;98646.53;;;28.10;52.49
54936;BME280;40838;50.676;7.838;2023-09-07T12:26:35;98650.47;;;28.12;52.62
54936;BME280;40838;50.676;7.838;2023-09-07T12:29:03;98649.28;;;27.90;53.28
54936;BME280;40838;50.676;7.838;2023-09-07T12:31:30;98646.19;;;27.92;52.12
54936;BME280;40838;50.676;7.838;2023-09-07T12:33:57;98641.69;;;27.80;55.21
54936;BME280;40838;50.676;7.838;2023-09-07T12:36:24;98642.78;;;27.75;50.02
54936;BME280;40838;50.676;7.838;2023-09-07T12:38:55;98644.69;;;27.39;50.92
54936;BME280;40838;50.676;7.838;2023-09-07T12:41:23;98633.50;;;28.19;52.06
54936;BME280;40838;50.676;7.838;2023-09-07T12:43:49;98637.97;;;27.88;51.73
54936;BME280;40838;50.676;7.838;2023-09-07T12:46:19;98640.41;;;27.74;51.82
54936;BME280;40838;50.676;7.838;2023-09-07T12:48:46;98632.72;;;27.25;55.85
54936;BME280;40838;50.676;7.838;2023-09-07T12:51:12;98638.31;;;27.67;56.82
54936;BME280;40838;50.676;7.838;2023-09-07T12:53:39;98630.38;;;27.23;57.57
54936;BME280;40838;50.676;7.838;2023-09-07T12:56:06;98635.22;;;27.69;58.22
54936;BME280;40838;50.676;7.838;2023-09-07T12:58:33;98630.41;;;27.78;51.98